RESULTADOS DE LA FECHA: Domingo 24 de Febrero, 2019 C2 | Ver Clase 2 | Ver Clase 3
FINAL C2
Puesto Nro Piloto Marca Vtas Tiempo Dif.
1 69 Agustin HERRERA RENAULT CLIO 15 34:34.097
2 5 Gaston GRASSO TOYOTA ETIOS 15 34:35.610 1.51
3 14 Ever FRANETOVICH FIAT PALIO 15 34:38.539 4.44
4 25 Sebastian PEREZ CHEVROLET ONIX 15 34:40.683 6.58
5 1 Nicolas POSCO FIESTA KINETIC 15 34:41.900 7.80
6 26 Damian KIRSTEIN PEUGEOT 208 15 34:49.436 15.3
7 18 Marcos FERNANDEZ NISSAN MARCH 15 34:50.823 16.7
8 11 Gaston IANSA FIESTA KINETIC 15 34:51.211 17.1
9 7 Maximiliano BESTANI NISSAN MARCH 15 34:51.316 17.2
10 31 Facundo LEANEZ TOYOTA ETIOS 15 34:51.530 17.4
11 111 Joel GASSMANN FIESTA KINETIC 15 34:52.198 18.1
12 6 Miguel CIAURRO VW TREND 15 34:58.446 24.3
13 28 Agustin LOPEZ DONZELLI RENAULT CLIO 15 34:59.505 25.4
14 2 Juan P. PASTORI TOYOTA ETIOS 15 34:59.996 25.8
15 114 Matias SIGNORELLI NISSAN MARCH 15 35:00.179 26.0
16 120 Geronimo NUÑEZ NISSAN MARCH 15 35:01.363 27.
17 46 Christian ABDALA TOYOTA ETIOS 15 35:01.507 27.4
18 37 Sandro ABDALA NISSAN MARCH 15 35:04.168 30.0
19 32 Sergio FERNANDEZ NISSAN MARCH 15 35:05.356 31.2
20 24 Juan I. CANELA TOYOTA ETIOS 15 35:08.820 34.7
21 23 Matias CRAVERO FIESTA KINETIC 15 35:10.051 35.9
22 36 Alejo BORGIANI VW TREND 15 35:10.051 35.9
23 21 Gabriel SCORDIA FIESTA KINETIC 15 35:10.325 36.2
24 63 Renzo TESTA FIAT PALIO 15 35:11.937 37.8
25 27 Pablo ORTEGA RENAULT CLIO 15 35:13.751 39.6
26 141 Juan Pablo ROTONDO FIESTA KINETIC 15 35:15.143 41.0
27 54 Facundo ROTONDO FIESTA KINETIC 15 36:22.745 1:48
28 43 Walter LOPEZ NISSAN MARCH 14 33:32.310 1 Vu
47 Ignacio PROCACITTO VW TREND 10 25:40.128 5 Vu
13 Joel BORGOBELLO VW TREND 7 19:10.959 8 Vu
48 Horacio COSTA TOYOTA ETIOS 7 20:11.501 8 Vu
8 Fernando AYALA RENAULT CLIO 6 17:01.354 9 Vu
78 Alejandro WEIMANN CHEVROLET CORSA 4 19:52.842 11 V
52 Gustavo ACUÑA VW TREND 3 9:12.856 12
3 Julian LEPPHAILLE TOYOTA ETIOS 1 2:17.271 14 V

Auto Nro. 63 Recargado con 5 seg por no hacer la chicana 1

Auto Nro. 64 Excluido por reiteradas maniobras peligrosas.

Auto 2 Recargado on 10 seg. por maniobra peligrosa al Auto Nro. 14 y no hacer chicana 1

Auto Nro. 43 Recargado con 5 seg por no hacer chicana 2

No largo Auto Nro. 39

Descargas
Título Archivo Descarga
193-103-final-clase-2.xls
SERIES
PRIMERA SERIE C2
Puesto Nro Piloto Marca Vtas Tiempo Dif.
1 14 Ever FRANETOVICH FIAT PALIO 6 13:42.736
2 69 Agustin HERRERA RENAULT CLIO 6 13:43.068 0.332
3 11 Gaston IANSA FIESTA KINETIC 6 13:45.502 2.766
4 3 Julian LEPPHAILLE TOYOTA ETIOS 6 13:46.337 3.601
5 27 Pablo ORTEGA RENAULT CLIO 6 13:47.507 4.771
6 25 Sebastian PEREZ CHEVROLET ONIX 6 13:48.192 5.456
7 31 Facundo LEANEZ TOYOTA ETIOS 6 13:50.200 7.464
8 26 Damian KIRSTEIN PEUGEOT 208 6 13:50.300 7.564
9 24 Juan I. CANELA TOYOTA ETIOS 6 13:50.656 7.920
10 46 Christian ABDALA TOYOTA ETIOS 6 13:51.277 8.541
11 35 Diego LEANEZ TOYOTA ETIOS 6 13:52.557 9.821
12 32 Sergio FERNANDEZ NISSAN MARCH 6 13:52.863 10.12
13 37 Sandro ABDALA NISSAN MARCH 6 13:53.055 10.31
14 43 Walter LOPEZ NISSAN MARCH 6 13:53.998 11.26
15 141 Juan Pablo ROTONDO FIESTA KINETIC 6 13:54.337 11.60
16 47 Ignacio PROCACITTO VW TREND 6 13:54.566 11.83
13 Joel BORGOBELLO VW TREND 2 3:59.859 4 Vue
54 Facundo ROTONDO FIESTA KINETIC 2 4:05.439 4 Vue
39 Alejandro VALDERREY FIAT PALIO

Auto Nro. 26 Recargado con 4 puestos por sobrepaso con AS

Descargas
Título Archivo Descarga
193-23-1-serie-clase-2.xls
SEGUNDA SERIE C2
Puesto Nro Piloto Marca Vtas Tiempo Dif.
1 5 Gaston GRASSO TOYOTA ETIOS 6 13:03.820
2 8 Fernando AYALA RENAULT CLIO 6 13:05.646 1.826
3 18 Marcos FERNANDEZ NISSAN MARCH 6 13:06.025 2.205
4 2 Juan P. PASTORI TOYOTA ETIOS 6 13:06.379 2.559
5 1 Nicolas POSCO FIESTA KINETIC 6 13:07.310 3.490
6 111 Joel GASSMANN FIESTA KINETIC 6 13:07.957 4.137
7 7 Maximiliano BESTANI NISSAN MARCH 6 13:08.000 4.180
8 114 Matias SIGNORELLI NISSAN MARCH 6 13:08.498 4.678
9 23 Matias CRAVERO FIESTA KINETIC 6 13:13.302 9.482
10 21 Gabriel SCORDIA FIESTA KINETIC 6 13:13.805 9.985
11 28 Agustin LOPEZ DONZELLI RENAULT CLIO 6 13:15.002 11.182
12 36 Alejo BORGIANI VW TREND 6 13:15.917 12.097
13 120 Geronimo NUÑEZ NISSAN MARCH 6 13:18.181 14.36
14 64 Miguel ARGAÑARAZ RENAULT CLIO 6 13:18.432 14.61
15 48 Horacio COSTA TOYOTA ETIOS 6 13:20.982 17.162
16 63 Renzo TESTA FIAT PALIO 6 13:21.200 17.380
17 52 Gustavo ACUÑA VW TREND 6 13:32.581 28.76
6 Miguel CIAURRO VW TREND
78 Alejandro WEIMANN CHEVROLET CORSA

Auto Nro. 26 Recargado con 2 puestos por maniobra peligrosa al Auto Nro. 111

Descargas
Título Archivo Descarga
193-623-2-serie-clase-2.xls
TERCERA SERIE C2
Puesto Nro Piloto Marca Vtas Tiempo Dif.
Descargas
CLASIFICACIONES
GENERAL CLASIFICACIÓN C2
Puesto Nro Piloto Marca Vtas Tiempo Dif.
1 14 Ever FRANETOVICH FIAT PALIO. 1 1:55.532
2 5 Gaston GRASSO TOYOTA ETIOS. 4 1:56.171 0.639
3 11 Gaston IANSA FIESTA KINETIC. 3 1:56.309 0.777
4 8 Fernando AYALA. RENAULT CLIO. 2 1:56.315 0.783
5 69 Agustin HERRERA RENAULT CLIO 3 1:56.341 0.809
6 18 Marcos FERNANDEZ NISSAN MARCH 2 1:56.446 0.914
7 26 Damian KIRSTEIN PEUGEOT 208 5 1:56.451 0.919
8 111 Joel GASSMANN FIESTA KINETIC 3 1:56.624 1.092
9 3 Julian LEPPHAILLE TOYOTA ETIOS 3 1:56.630 1.098
10 2 Juan P. PASTORI TOYOTA ETIOS 3 1:56.678 1.146
11 46 Christian ABDALA TOYOTA ETIOS 3 1:56.680 1.148
12 7 Maximiliano BESTANI NISSAN MARCH 4 1:56.850 1.318
13 13 Joel BORGOBELLO VW TREND 3 1:56.940 1.408
14 1 Nicolas POSCO FIESTA KINETIC 4 1:57.016 1.484
15 25 Sebastian PEREZ CHEVROLET ONIX 4 1:57.086 1.554
16 114 Matias SIGNORELLI NISSAN MARCH 3 1:57.130 1.598
17 31 Facundo LEANEZ TOYOTA ETIOS 1 1:57.212 1.680
18 6 Miguel CIAURRO VW TREND 3 1:57.233 1.701
19 32 Sergio FERNANDEZ NISSAN MARCH 4 1:57.274 1.742
20 23 Matias CRAVERO FIESTA KINETIC 4 1:57.388 1.856
21 27 Pablo ORTEGA RENAULT CLIO 2 1:57.478 1.946
22 78 Alejandro WEIMANN CHEVROLET CORSA 3 1:57.532 2.000
23 24 Juan I. CANELA TOYOTA ETIOS 4 1:57.541 2.009
24 21 Gabriel SCORDIA FIESTA KINETIC 4 1:57.601 2.069
25 35 Diego LEANEZ TOYOTA ETIOS 1 1:57.623 2.091
26 120 Geronimo NU—EZ NISSAN MARCH 3 1:57.9 24 2.3
27 39 Alejandro VALDERREY FIAT PALIO 5 1:57.986 2.454
28 64 Miguel ARGA—ARAZ RENAULT CLIO 3 1:58.1 65 2.6
29 141 Juan Pablo ROTONDO FIESTA KINETIC 3 1:58.278 2.746
30 36 Alejo BORGIANI VW TREND 4 1:58.502 2.970
31 54 Facundo ROTONDO FIESTA KINETIC 4 1:58.763 3.231
32 28 Agustin LOPEZ DONZELLI RENAULT CLIO 3 1:58.846 3.314
33 37 Sandro ABDALA NISSAN MARCH 5 1:58.904 3.372
34 48 Horacio COSTA TOYOTA ETIOS 3 1:59.460 3.928
35 43 Walter LOPEZ NISSAN MARCH 4 2:00.305 4.773
36 52 Gustavo ACU—A VW TREND 3 2:01.1 46 5.6

Retiro de tiempos a los Autos Nro 23, 24 por exceder limite de pista.

Sin Tiempos Autos Nro. 47 y 63

Auto Nro. 37 Retiro de la mejor vuelta por obstruccion en pista al Auto Nro. 28

Descargas
ENTRENAMIENTOS
1° ENTRENAMIENTO C2
Puesto Nro Piloto Marca Vtas Tiempo Dif.
1 25 Sebastian PEREZ TN CLASE 2 1:55.873
2 26 Damian KIRSTEIN TN CLASE 2 1:55.896 0.023
3 2 Juan P. PASTORI TN CLASE 2 1:55.936 0.063
4 69 Agustin HERRERA TN CLASE 2 1:56.140 0.267
5 18 Marcos FERNANDEZ TN CLASE 2 1:56.170 0.297
6 5 Gaston GRASSO TN CLASE 2 1:56.224 0.351
7 14 Ever FRANETOVICH TN CLASE 2 1:56.244 0.371
8 3 Julian LEPPHAILLE TN CLASE 2 1:56.507 0.634
9 8 Fernando AYALA TN CLASE 2 1:56.514 0.641
10 11 Gaston IANSA TN CLASE 2 1:56.619 0.746
11 27 Pablo ORTEGA TN CLASE 2 1:56.626 0.753
12 13 Joel BORGOBELLO TN CLASE 2 1:56.653 0.780
13 6 Miguel CIAURRO TN CLASE 2 1:56.735 0.862
14 37 Sandro ABDALA TN CLASE 2 1:57.115 1.242
15 7 Maximiliano BESTANI TN CLASE 2 1:57.159 1.286
16 46 Christian ABDALA TN CLASE 2 1:57.320 1.447
17 114 Matias SIGNORELLI TN CLASE 2 1:57.351 1.478
18 24 Juan I. CANELA TN CLASE 2 1:57.430 1.557
19 120 Geronimo NU—EZ TN CLASE 2 1:57.7 57 1.8
20 35 Diego LEANEZ TN CLASE 2 1:58.145 2.272
21 32 Sergio FERNANDEZ TN CLASE 2 1:58.186 2.313
22 36 Alejo BORGIANI TN CLASE 2 1:58.255 2.382
23 28 Agustin LOPEZ DONZELLI TN CLASE 2 1:58.274 2.401
24 23 Matias CRAVERO TN CLASE 2 1:58.631 2.758
25 31 Facundo LEANEZ TN CLASE 2 1:58.715 2.842
26 64 Miguel ARGA—ARAZ TN CLASE 2 1:58.9 42 3.0
27 54 Facundo ROTONDO TN CLASE 2 1:59.182 3.309
28 141 Juan Pablo ROTONDO TN CLASE 2 1:59.184 3.311
29 63 Renzo TESTA TN CLASE 2 1:59.253 3.380
30 48 Horacio COSTA TN CLASE 2 2:00.372 4.499
31 52 Gustavo ACU—A TN CLASE 2 2:01.7 26 5.8
32 39 Alejandro VALDERREY TN CLASE 2 2:03.326 7.453
33 21 Gabriel SCORDIA TN CLASE 2 2:05.035 9.162
34 111 Joel GASSMANN TN CLASE 2 2:08.371 12.49
35 1 Nicolas POSCO TN CLASE 2 2:09.920 14.04
36 78 Alejandro WEIMANN TN CLASE 2 2:29.712 33.83

Retiro de tiempos a los Autos Nro. 5, 8, 23, 25, 37, 64 por exceder limites de pista

Sin Tienpos Autos Nro. 14 y 120

Descargas
Título Archivo Descarga
193-805-1-entre-clase-2.xls
2° ENTRENAMIENTO C2
Puesto Nro Piloto Marca Vtas Tiempo Dif.
1 14 Ever FRANETOVICH FIAT PALIO. 1 1:55.532
2 5 Gaston GRASSO TOYOTA ETIOS. 4 1:56.171 0.639
3 11 Gaston IANSA FIESTA KINETIC. 3 1:56.309 0.777
4 8 Fernando AYALA. RENAULT CLIO. 2 1:56.315 0.783
5 69 Agustin HERRERA RENAULT CLIO 3 1:56.341 0.809
6 18 Marcos FERNANDEZ NISSAN MARCH 2 1:56.446 0.914
7 26 Damian KIRSTEIN PEUGEOT 208 5 1:56.451 0.919
8 111 Joel GASSMANN FIESTA KINETIC 3 1:56.624 1.092
9 3 Julian LEPPHAILLE TOYOTA ETIOS 3 1:56.630 1.098
10 2 Juan P. PASTORI TOYOTA ETIOS 3 1:56.678 1.146
11 46 Christian ABDALA TOYOTA ETIOS 3 1:56.680 1.148
12 7 Maximiliano BESTANI NISSAN MARCH 4 1:56.850 1.318
13 13 Joel BORGOBELLO VW TREND 3 1:56.940 1.408
14 1 Nicolas POSCO FIESTA KINETIC 4 1:57.016 1.484
15 25 Sebastian PEREZ CHEVROLET ONIX 4 1:57.086 1.554
16 114 Matias SIGNORELLI NISSAN MARCH 3 1:57.130 1.598
17 31 Facundo LEANEZ TOYOTA ETIOS 1 1:57.212 1.680
18 6 Miguel CIAURRO VW TREND 3 1:57.233 1.701
19 32 Sergio FERNANDEZ NISSAN MARCH 4 1:57.274 1.742
20 23 Matias CRAVERO FIESTA KINETIC 4 1:57.388 1.856
21 27 Pablo ORTEGA RENAULT CLIO 2 1:57.478 1.946
22 78 Alejandro WEIMANN CHEVROLET CORSA 3 1:57.532 2.000
23 24 Juan I. CANELA TOYOTA ETIOS 4 1:57.541 2.009
24 21 Gabriel SCORDIA FIESTA KINETIC 4 1:57.601 2.069
25 35 Diego LEANEZ TOYOTA ETIOS 1 1:57.623 2.091
26 120 Geronimo NU—EZ NISSAN MARCH 3 1:57.9 24 2.3
27 39 Alejandro VALDERREY FIAT PALIO 5 1:57.986 2.454
28 64 Miguel ARGA—ARAZ RENAULT CLIO 3 1:58.1 65 2.6
29 141 Juan Pablo ROTONDO FIESTA KINETIC 3 1:58.278 2.746
30 36 Alejo BORGIANI VW TREND 4 1:58.502 2.970
31 54 Facundo ROTONDO FIESTA KINETIC 4 1:58.763 3.231
32 28 Agustin LOPEZ DONZELLI RENAULT CLIO 3 1:58.846 3.314
33 37 Sandro ABDALA NISSAN MARCH 5 1:58.904 3.372
34 48 Horacio COSTA TOYOTA ETIOS 3 1:59.460 3.928
35 43 Walter LOPEZ NISSAN MARCH 4 2:00.305 4.773
36 52 Gustavo ACU—A VW TREND 3 2:01.1 46 5.6

Retiro de tiempos Autos Nro. 7, 8, 13, 21, 23, 24, 31, 35, 36 Por exceder limites de pista

Sin tiempos Autos Nro. 43 y 47

Descargas
Título Archivo Descarga
193-441-2-entre-clase-2.xls
CALENDARIO AÑO 2019
Nro Fecha Circuito C2 C3
1 24/02 San Luis (La Pedrera)
2 24/03 La Pampa
3 21/04 San Juan
4 12/05 Neuquén
5 02/06 A confirmar
6 14/07 A confirmar
7 04/08 A confirmar
8 01/09 A confirmar
9 29/09 A confirmar
10 20/10 A confirmar
11 17/11 A confirmar
12 22/12 A confirmar